Time;durP1;ratioP1;P1;durP2;ratioP2;P2;SDS_P1;SDS_P2;PMS_P1;PMS_P2;Temp;Humidity;BMP_temperature;BMP_pressure;BME280_temperature;BME280_humidity;BME280_pressure;Samples;Min_cycle;Max_cycle;Signal;HPM_P1;HPM_P2
2023/07/15 00:02:09;;;;;;;4.78;2.63;;;;;;;20.82;55.70;100397.59;4954517;29;20051;-78
2023/07/15 00:04:35;;;;;;;8.43;3.00;;;;;;;20.59;55.35;100360.00;4954460;29;20118;-78
2023/07/15 00:07:04;;;;;;;6.60;2.72;;;;;;;20.61;55.01;100358.03;4954380;29;20098;-78
2023/07/15 00:09:30;;;;;;;8.32;2.92;;;;;;;20.82;55.16;100388.91;4954246;29;20050;-78
2023/07/15 00:11:56;;;;;;;7.53;2.65;;;;;;;20.75;54.63;100372.22;4954219;29;20066;-78
2023/07/15 00:14:23;;;;;;;4.97;2.53;;;;;;;20.66;54.90;100357.53;4954067;29;20493;-78
2023/07/15 00:16:52;;;;;;;3.72;2.60;;;;;;;20.55;54.83;100335.09;4954245;29;20027;-78
2023/07/15 00:19:19;;;;;;;4.85;2.22;;;;;;;20.75;55.25;100375.66;4954259;29;20502;-78
2023/07/15 00:21:45;;;;;;;4.68;2.60;;;;;;;20.72;54.82;100378.63;4954235;29;20019;-79
2023/07/15 00:24:13;;;;;;;6.07;2.50;;;;;;;20.62;55.39;100370.97;4954262;29;20024;-78
2023/07/15 00:26:39;;;;;;;5.63;2.50;;;;;;;20.72;54.45;100381.25;4954063;29;20473;-78
2023/07/15 00:29:06;;;;;;;5.97;2.60;;;;;;;20.14;55.41;100300.38;4954206;29;20469;-78
2023/07/15 00:31:34;;;;;;;6.25;2.58;;;;;;;20.39;56.39;100354.34;4954244;29;20034;-78
2023/07/15 00:34:00;;;;;;;5.20;2.75;;;;;;;20.56;55.32;100389.22;4954254;29;20060;-78
2023/07/15 00:36:26;;;;;;;6.43;2.53;;;;;;;20.58;55.29;100389.88;4954486;29;20066;-79
2023/07/15 00:38:53;;;;;;;3.30;2.17;;;;;;;20.59;55.01;100383.63;4954000;29;20536;-78
2023/07/15 00:41:30;;;;;;;6.15;2.53;;;;;;;20.55;55.28;100377.91;4953949;29;20069;-77
2023/07/15 00:43:56;;;;;;;6.30;2.72;;;;;;;20.60;55.24;100388.69;4953876;29;20070;-77
2023/07/15 00:46:22;;;;;;;6.95;2.53;;;;;;;20.66;54.69;100386.38;4954107;29;20031;-77
2023/07/15 00:49:13;;;;;;;3.83;2.30;;;;;;;20.72;54.83;100396.97;4953974;29;20123;-78
2023/07/15 00:51:44;;;;;;;6.40;2.58;;;;;;;20.82;54.14;100394.16;4954742;28;20473;-78
2023/07/15 00:54:13;;;;;;;4.07;2.20;;;;;;;20.67;54.08;100359.16;4957267;29;20469;-77
2023/07/15 00:56:40;;;;;;;4.90;2.50;;;;;;;20.95;54.09;100393.59;4957374;29;20387;-78
2023/07/15 00:59:08;;;;;;;7.47;2.50;;;;;;;20.88;53.59;100385.59;4940193;29;20556;-77
2023/07/15 01:01:34;;;;;;;6.43;2.70;;;;;;;20.96;53.66;100398.66;4957430;29;20031;-77
2023/07/15 01:03:59;;;;;;;8.23;2.40;;;;;;;21.02;53.19;100402.38;4957254;29;20047;-78
2023/07/15 01:06:25;;;;;;;9.30;2.60;;;;;;;20.94;53.14;100398.00;4957325;29;20057;-77
2023/07/15 01:08:50;;;;;;;5.85;2.20;;;;;;;20.99;54.11;100408.00;4957045;29;20031;-77
2023/07/15 01:11:16;;;;;;;3.38;1.95;;;;;;;20.96;53.44;100416.22;4957044;29;20057;-77
2023/07/15 01:13:41;;;;;;;7.25;2.50;;;;;;;20.75;53.59;100388.78;4957393;29;20031;-77
2023/07/15 01:16:07;;;;;;;5.55;2.60;;;;;;;20.71;53.98;100386.66;4957347;29;20042;-77
2023/07/15 01:18:32;;;;;;;4.60;2.30;;;;;;;20.76;53.86;100414.03;4957189;29;20031;-77
2023/07/15 01:20:59;;;;;;;6.05;2.72;;;;;;;20.63;53.88;100398.03;4956997;29;20039;-77
2023/07/15 01:23:25;;;;;;;5.40;2.35;;;;;;;20.66;54.40;100404.75;4939775;29;20034;-78
2023/07/15 01:25:50;;;;;;;7.55;2.53;;;;;;;20.55;54.20;100398.06;4956811;29;20046;-77
2023/07/15 01:28:16;;;;;;;7.70;2.30;;;;;;;20.57;54.46;100406.59;4956883;29;20027;-78
2023/07/15 01:30:41;;;;;;;5.68;2.22;;;;;;;20.52;54.24;100408.91;4956953;29;20035;-78
2023/07/15 01:33:06;;;;;;;7.60;2.55;;;;;;;20.30;55.53;100376.34;4956949;29;20027;-78
2023/07/15 01:35:32;;;;;;;4.80;2.15;;;;;;;20.37;55.09;100405.34;4957076;29;20034;-78
2023/07/15 01:37:57;;;;;;;5.18;2.08;;;;;;;20.22;56.46;100399.97;4956947;29;20030;-78
2023/07/15 01:40:22;;;;;;;5.28;2.20;;;;;;;20.27;55.49;100413.41;4938839;29;20062;-78
2023/07/15 01:42:48;;;;;;;5.85;2.55;;;;;;;20.08;55.91;100392.84;4956838;29;20026;-78
2023/07/15 01:45:13;;;;;;;5.60;2.10;;;;;;;20.05;56.07;100405.25;4939008;29;20035;-77
2023/07/15 01:47:39;;;;;;;4.82;2.53;;;;;;;19.99;56.56;100403.34;4956598;29;20037;-77
2023/07/15 01:50:08;;;;;;;5.43;2.40;;;;;;;19.80;56.60;100379.31;4956556;29;20053;-77
2023/07/15 01:52:33;;;;;;;5.32;2.42;;;;;;;19.70;56.99;100385.53;4956617;29;20378;-77
2023/07/15 01:54:59;;;;;;;7.18;2.63;;;;;;;19.77;56.67;100391.75;4956284;29;20026;-76
2023/07/15 01:57:30;;;;;;;6.20;2.65;;;;;;;19.83;56.99;100418.25;4956274;29;20065;-77
2023/07/15 01:59:59;;;;;;;5.22;2.10;;;;;;;19.88;56.74;100424.66;4956467;29;20027;-77
2023/07/15 02:02:25;;;;;;;3.55;2.10;;;;;;;19.81;57.80;100426.28;4956079;28;20134;-77
2023/07/15 02:04:50;;;;;;;7.07;2.50;;;;;;;19.74;58.06;100409.59;4956387;29;20099;-77
2023/07/15 02:07:16;;;;;;;5.95;2.42;;;;;;;19.65;58.67;100414.03;4956164;29;20123;-77
2023/07/15 02:09:41;;;;;;;6.43;2.63;;;;;;;19.63;59.44;100438.75;4938956;29;20053;-77
2023/07/15 02:12:07;;;;;;;4.18;2.30;;;;;;;19.59;58.66;100435.66;4956050;29;20027;-77
2023/07/15 02:14:32;;;;;;;5.45;2.30;;;;;;;19.49;59.44;100433.16;4956020;29;20027;-78
2023/07/15 02:16:58;;;;;;;5.43;2.35;;;;;;;19.44;59.58;100437.25;4956284;29;20023;-79
2023/07/15 02:19:23;;;;;;;6.80;2.50;;;;;;;19.39;59.73;100434.31;4956236;29;20484;-79
2023/07/15 02:21:48;;;;;;;4.88;2.35;;;;;;;19.37;59.30;100433.63;4956070;29;20389;-78
2023/07/15 02:24:14;;;;;;;5.90;2.40;;;;;;;19.37;59.32;100431.03;4956034;29;20023;-78
2023/07/15 02:26:39;;;;;;;5.63;2.30;;;;;;;19.14;59.72;100397.63;4955639;29;20034;-77
2023/07/15 02:29:04;;;;;;;7.32;2.95;;;;;;;19.34;59.63;100437.41;4955845;29;20024;-77
2023/07/15 02:31:30;;;;;;;5.25;2.60;;;;;;;19.19;59.73;100415.50;4955765;29;20437;-76
2023/07/15 02:33:55;;;;;;;4.97;2.42;;;;;;;19.26;60.24;100436.56;4955944;29;20421;-77
2023/07/15 02:36:20;;;;;;;5.68;2.10;;;;;;;19.20;60.63;100433.66;4955712;29;20038;-77
2023/07/15 02:38:51;;;;;;;6.38;2.28;;;;;;;18.87;60.29;100398.72;4955860;29;20027;-78
2023/07/15 02:41:17;;;;;;;4.13;2.13;;;;;;;19.12;61.27;100443.28;4937997;29;20039;-78
2023/07/15 02:43:42;;;;;;;5.20;2.50;;;;;;;18.57;61.10;100365.28;4955759;29;20023;-77
2023/07/15 02:46:13;;;;;;;4.53;2.60;;;;;;;17.85;61.25;100252.53;4955521;29;20462;-78
2023/07/15 02:48:39;;;;;;;4.78;2.33;;;;;;;18.86;62.16;100428.50;4955382;29;20035;-78
2023/07/15 02:51:24;;;;;;;4.28;2.20;;;;;;;18.42;62.65;100354.63;4938146;29;20046;-77
2023/07/15 02:53:50;;;;;;;6.28;2.20;;;;;;;18.73;64.30;100419.47;4937858;29;20078;-77
2023/07/15 02:56:15;;;;;;;5.32;2.55;;;;;;;18.65;63.74;100414.22;4937871;29;20023;-78
2023/07/15 02:58:41;;;;;;;4.47;2.25;;;;;;;18.69;64.37;100428.63;4954912;29;20049;-79
2023/07/15 03:01:09;;;;;;;6.72;2.58;;;;;;;18.43;65.47;100392.88;4955286;29;20061;-76
2023/07/15 03:03:36;;;;;;;3.95;2.50;;;;;;;18.52;65.74;100418.06;4954652;29;20123;-77
2023/07/15 03:06:01;;;;;;;5.80;2.35;;;;;;;18.42;65.45;100413.94;4955201;29;20035;-77
2023/07/15 03:08:26;;;;;;;5.40;2.53;;;;;;;18.40;66.98;100416.72;4954904;29;20110;-78
2023/07/15 03:10:52;;;;;;;5.82;2.85;;;;;;;18.34;67.66;100426.00;4937733;29;20465;-77
2023/07/15 03:13:17;;;;;;;5.95;2.50;;;;;;;18.25;68.04;100411.25;4955140;29;20039;-78
2023/07/15 03:15:44;;;;;;;5.57;2.30;;;;;;;18.14;68.38;100403.69;4954547;28;20465;-77
2023/07/15 03:18:10;;;;;;;6.30;2.20;;;;;;;18.09;69.90;100410.34;4955196;29;20071;-77
2023/07/15 03:20:35;;;;;;;5.47;2.92;;;;;;;18.12;70.66;100425.72;4955055;29;20051;-77
2023/07/15 03:23:01;;;;;;;5.53;2.40;;;;;;;17.77;70.81;100375.22;4954911;29;20073;-77
2023/07/15 03:25:26;;;;;;;6.53;2.70;;;;;;;18.00;71.59;100425.19;4954778;29;20023;-77
2023/07/15 03:27:51;;;;;;;5.93;2.67;;;;;;;17.93;72.01;100427.59;4954759;29;20365;-77
2023/07/15 03:30:18;;;;;;;4.85;2.35;;;;;;;17.91;72.67;100431.34;4954887;29;20062;-75
2023/07/15 03:32:46;;;;;;;6.05;2.70;;;;;;;17.77;72.26;100422.25;4954500;29;20039;-78
2023/07/15 03:35:15;;;;;;;5.60;2.58;;;;;;;17.63;72.63;100407.91;4954651;29;20035;-77
2023/07/15 03:37:47;;;;;;;5.60;2.60;;;;;;;17.37;72.36;100360.06;4954769;29;20396;-78
2023/07/15 03:40:12;;;;;;;6.47;2.88;;;;;;;16.86;72.25;100289.41;4937488;29;20397;-78
2023/07/15 03:42:50;;;;;;;5.40;2.60;;;;;;;17.09;72.54;100320.22;4954478;29;20034;-78
2023/07/15 03:45:31;;;;;;;7.18;2.63;;;;;;;17.65;73.05;100420.81;4954479;29;20067;-78
2023/07/15 03:47:56;;;;;;;5.47;2.85;;;;;;;17.07;74.91;100343.03;4954669;29;20030;-78
2023/07/15 03:50:21;;;;;;;5.00;2.70;;;;;;;17.09;74.99;100348.91;4954463;29;20031;-78
2023/07/15 03:52:54;;;;;;;4.80;2.60;;;;;;;16.54;75.08;100271.66;4954565;29;20481;-78
2023/07/15 03:55:20;;;;;;;5.50;2.47;;;;;;;17.47;75.48;100426.06;4954543;29;20051;-78
2023/07/15 03:57:48;;;;;;;6.68;2.72;;;;;;;17.42;75.74;100425.72;4954338;29;20082;-78
2023/07/15 04:00:22;;;;;;;6.63;2.90;;;;;;;17.19;76.35;100387.00;4954697;29;20034;-78
2023/07/15 04:02:49;;;;;;;4.57;2.67;;;;;;;16.89;76.38;100340.44;4954421;29;20039;-78
2023/07/15 04:05:15;;;;;;;5.88;2.95;;;;;;;16.73;76.91;100322.03;4954497;29;20027;-78
2023/07/15 04:07:41;;;;;;;6.03;2.85;;;;;;;16.88;76.89;100349.22;4954646;29;20055;-78
2023/07/15 04:10:22;;;;;;;8.32;2.92;;;;;;;17.38;77.26;100425.16;4954305;29;20027;-78
2023/07/15 04:12:56;;;;;;;5.78;2.80;;;;;;;16.73;77.74;100322.03;4954107;29;20063;-77
2023/07/15 04:15:24;;;;;;;7.47;2.83;;;;;;;17.12;78.61;100385.97;4954438;29;20030;-78
2023/07/15 04:21:46;;;;;;;6.72;3.20;;;;;;;17.36;77.98;100423.69;4954511;28;20465;-78
2023/07/15 04:37:11;;;;;;;5.40;3.03;;;;;;;17.58;78.84;100414.56;5130203;23;20063;-78
2023/07/15 04:39:39;;;;;;;6.70;2.80;;;;;;;17.89;76.05;100447.13;4940672;29;20404;-78
2023/07/15 04:42:37;;;;;;;5.78;3.35;;;;;;;17.96;75.95;100445.56;4940316;29;20389;-78
2023/07/15 04:45:12;;;;;;;7.47;3.20;;;;;;;17.56;77.23;100378.16;4957403;29;20441;-78
2023/07/15 04:47:43;;;;;;;9.73;2.90;;;;;;;17.20;75.80;100310.34;4957540;29;20042;-77
2023/07/15 04:50:09;;;;;;;;;;;;;;;18.22;74.65;100447.34;4957895;29;20484;-79
2023/07/15 04:52:34;;;;;;;4.95;2.85;;;;;;;17.52;76.96;100334.25;4940341;29;19914;-78
2023/07/15 04:55:36;;;;;;;7.10;3.00;;;;;;;17.30;75.89;100278.13;4957410;29;20034;-78
2023/07/15 04:58:57;;;;;;;6.60;2.90;;;;;;;18.39;75.93;100448.25;4956307;29;20042;-78
2023/07/15 05:14:27;;;;;;;5.50;2.78;;;;;;;18.94;71.74;100385.03;2917180;23;20091;-76
2023/07/15 05:16:52;;;;;;;6.65;3.30;;;;;;;18.74;70.42;100303.41;4939845;29;20066;-78
2023/07/15 05:19:22;;;;;;;6.32;3.25;;;;;;;19.92;69.08;100436.44;4957027;29;20034;-76
2023/07/15 05:21:53;;;;;;;7.03;3.20;;;;;;;20.04;68.81;100413.31;4957413;29;20433;-79
2023/07/15 05:24:22;;;;;;;6.97;3.47;;;;;;;20.44;69.86;100446.47;4957157;29;20034;-79
2023/07/15 05:27:09;;;;;;;5.13;3.28;;;;;;;20.83;66.63;100449.06;4957179;29;20038;-79
2023/07/15 05:29:40;;;;;;;7.22;3.58;;;;;;;20.78;64.06;100377.94;4956805;29;20023;-78
2023/07/15 05:32:06;;;;;;;5.97;3.92;;;;;;;20.79;63.55;100318.41;4956850;29;20085;-79
2023/07/15 05:34:32;;;;;;;8.88;4.03;;;;;;;21.62;60.46;100352.47;4956915;29;20477;-79
2023/07/15 05:37:09;;;;;;;4.10;2.78;;;;;;;22.63;60.33;100389.63;4956581;28;20022;-79
2023/07/15 05:39:41;;;;;;;5.25;2.78;;;;;;;23.79;55.81;100459.66;4956862;29;20035;-77
2023/07/15 05:42:06;;;;;;;4.10;2.47;;;;;;;23.63;51.68;100316.59;4956688;29;20032;-79
2023/07/15 05:45:02;;;;;;;4.90;3.10;;;;;;;25.25;53.31;100451.41;4956707;29;20038;-79
2023/07/15 05:47:34;;;;;;;6.72;2.45;;;;;;;25.60;50.27;100393.88;4939389;29;20440;-77
2023/07/15 05:50:09;;;;;;;6.47;2.67;;;;;;;25.62;49.40;100290.53;4939081;29;20023;-77
2023/07/15 05:52:35;;;;;;;5.38;2.33;;;;;;;27.02;45.54;100440.66;4956437;29;20082;-77
2023/07/15 05:55:19;;;;;;;7.10;2.67;;;;;;;27.53;47.72;100450.31;4955947;29;20433;-78
2023/07/15 05:57:53;;;;;;;6.97;2.45;;;;;;;27.60;45.34;100407.78;4956457;29;20413;-77
2023/07/15 06:00:28;;;;;;;4.07;2.35;;;;;;;28.05;44.52;100429.63;4984940;23;20417;-77
2023/07/15 06:02:54;;;;;;;6.32;2.20;;;;;;;28.14;43.03;100464.66;4956089;29;20050;-78
2023/07/15 06:05:19;;;;;;;7.95;2.60;;;;;;;27.92;43.79;100445.69;4955873;29;20031;-79
2023/07/15 06:07:45;;;;;;;4.72;2.47;;;;;;;27.44;45.45;100436.50;4956570;29;20039;-81
2023/07/15 06:10:11;;;;;;;5.97;2.40;;;;;;;28.35;43.82;100442.19;4939054;29;20381;-80
2023/07/15 06:12:36;;;;;;;5.53;2.30;;;;;;;29.50;41.30;100452.66;4951360;29;20106;-77
2023/07/15 06:15:04;;;;;;;5.63;2.40;;;;;;;30.18;39.06;100460.06;4937308;29;20034;-80
2023/07/15 06:17:30;;;;;;;4.88;2.05;;;;;;;31.05;37.23;100446.56;4920490;29;20046;-80
2023/07/15 06:20:27;;;;;;;6.60;2.45;;;;;;;31.15;38.26;100382.72;4936563;29;20027;-81
2023/07/15 06:26:15;;;;;;;7.15;2.45;;;;;;;33.30;36.11;100462.59;4979111;23;20070;-79
2023/07/15 06:31:10;;;;;;;8.10;2.35;;;;;;;32.89;31.76;100326.91;4934927;29;20453;-81
2023/07/15 06:33:36;;;;;;;6.65;2.15;;;;;;;33.31;31.25;100313.53;4950792;23;20059;-80
2023/07/15 06:36:24;;;;;;;5.03;1.90;;;;;;;34.37;32.58;100460.59;5048868;23;20056;-79
2023/07/15 06:38:59;;;;;;;5.32;2.10;;;;;;;33.57;32.33;100301.13;4919276;29;20079;-80
2023/07/15 06:41:34;;;;;;;4.88;1.90;;;;;;;33.81;31.97;100307.63;4917697;29;20034;-81
2023/07/15 06:44:45;;;;;;;4.72;1.77;;;;;;;35.09;31.83;100456.22;4947837;23;20390;-79
2023/07/15 06:52:02;;;;;;;4.85;2.00;;;;;;;32.58;34.74;100472.88;4860767;29;20084;-76
2023/07/15 06:54:41;;;;;;;6.63;2.05;;;;;;;30.04;38.39;100376.94;4910323;23;20572;-80
2023/07/15 06:58:00;;;;;;;4.03;1.98;;;;;;;30.97;38.30;100457.63;5122125;23;20338;-79
2023/07/15 07:00:27;;;;;;;3.90;2.20;;;;;;;30.97;37.55;100340.28;4858634;29;20073;-79
2023/07/15 07:02:52;;;;;;;4.05;1.85;;;;;;;32.18;36.92;100450.72;4858708;29;20050;-79
2023/07/15 07:05:19;;;;;;;3.47;1.77;;;;;;;32.35;34.96;100334.94;4929435;23;20051;-76
2023/07/15 07:07:44;;;;;;;4.22;1.90;;;;;;;33.22;34.67;100369.41;4938226;29;20454;-77
2023/07/15 07:10:17;;;;;;;4.32;1.80;;;;;;;33.86;34.68;100454.19;4955191;29;20039;-78
2023/07/15 07:12:43;;;;;;;4.43;2.13;;;;;;;34.06;33.30;100457.00;4955128;29;20496;-77
2023/07/15 07:15:17;;;;;;;3.22;1.70;;;;;;;33.78;34.74;100450.13;4955145;29;20035;-77
2023/07/15 07:17:43;;;;;;;4.75;1.60;;;;;;;33.23;35.29;100429.91;4954901;29;20027;-78
2023/07/15 07:20:08;;;;;;;6.28;2.00;;;;;;;33.57;35.15;100429.63;4937919;29;20034;-77
2023/07/15 07:22:34;;;;;;;7.43;1.80;;;;;;;34.21;33.69;100459.72;4955006;29;20034;-77
2023/07/15 07:25:00;;;;;;;5.15;1.90;;;;;;;32.76;34.77;100403.00;4954710;29;20038;-80
2023/07/15 07:27:25;;;;;;;4.03;1.60;;;;;;;33.26;35.05;100460.72;4954860;29;20487;-77
2023/07/15 07:29:52;;;;;;;5.30;1.73;;;;;;;34.10;34.17;100443.88;4954877;29;20028;-77
2023/07/15 07:32:18;;;;;;;3.03;1.42;;;;;;;34.75;32.51;100461.25;4954838;29;20122;-78
2023/07/15 07:34:43;;;;;;;5.40;1.67;;;;;;;33.62;34.23;100443.84;4954805;29;20134;-78
2023/07/15 07:37:09;;;;;;;4.43;1.40;;;;;;;31.91;36.87;100465.84;4937456;29;20102;-77
2023/07/15 07:39:34;;;;;;;3.17;1.48;;;;;;;30.63;38.88;100408.75;4954637;29;20103;-77
2023/07/15 07:42:07;;;;;;;4.50;1.70;;;;;;;30.22;41.21;100475.38;4954709;29;20385;-79
2023/07/15 07:44:38;;;;;;;6.32;1.60;;;;;;;29.22;41.77;100398.28;4954632;29;20501;-78
2023/07/15 07:47:04;;;;;;;2.15;1.40;;;;;;;29.11;43.94;100476.19;4954637;29;20036;-77
2023/07/15 07:49:29;;;;;;;4.63;1.88;;;;;;;28.26;45.65;100391.19;4954529;29;20026;-80
2023/07/15 07:51:54;;;;;;;6.70;1.73;;;;;;;27.80;46.24;100346.59;4937001;29;20493;-78
2023/07/15 07:54:36;;;;;;;5.38;1.60;;;;;;;28.16;46.15;100439.50;4954329;29;20031;-78
2023/07/15 07:57:08;;;;;;;6.90;1.60;;;;;;;27.06;47.25;100306.72;4892125;29;20062;-77
2023/07/15 07:59:38;;;;;;;5.28;1.70;;;;;;;26.70;47.90;100304.72;4954427;29;20035;-79
2023/07/15 08:02:04;;;;;;;3.17;1.40;;;;;;;27.63;49.52;100450.63;4977121;23;20058;-78
2023/07/15 08:04:31;;;;;;;4.32;1.30;;;;;;;27.54;49.16;100445.81;4936988;29;20031;-78
2023/07/15 08:07:21;;;;;;;4.05;1.58;;;;;;;27.55;49.24;100444.78;4954222;29;20070;-79
2023/07/15 08:09:46;;;;;;;2.83;1.27;;;;;;;26.76;49.39;100345.44;4954366;29;20027;-77
2023/07/15 08:12:12;;;;;;;2.78;1.20;;;;;;;27.52;50.00;100471.72;4936274;29;20126;-77
2023/07/15 08:14:37;;;;;;;3.78;1.73;;;;;;;27.35;49.54;100427.19;4954361;29;20058;-76
2023/07/15 08:17:14;;;;;;;4.60;1.35;;;;;;;27.31;49.61;100449.84;4954026;29;20027;-78
2023/07/15 08:19:40;;;;;;;3.50;1.35;;;;;;;27.01;49.99;100430.25;4954055;29;20035;-79
2023/07/15 08:22:05;;;;;;;3.65;1.27;;;;;;;26.68;49.96;100388.09;4954257;29;20081;-78
2023/07/15 08:24:36;;;;;;;3.40;1.23;;;;;;;27.01;50.43;100483.25;4953918;29;20027;-77
2023/07/15 08:27:02;;;;;;;2.78;1.13;;;;;;;26.42;51.77;100423.44;4954123;29;20540;-77
2023/07/15 08:29:28;;;;;;;4.97;1.40;;;;;;;26.08;53.14;100372.44;4954163;29;20034;-78
2023/07/15 08:31:53;;;;;;;3.47;1.40;;;;;;;26.17;52.58;100386.25;4953724;29;20474;-78
2023/07/15 08:34:32;;;;;;;2.88;1.33;;;;;;;26.67;53.22;100493.22;4936903;29;20389;-79
2023/07/15 08:36:58;;;;;;;4.00;1.35;;;;;;;25.70;53.58;100353.81;4953717;29;20035;-79
2023/07/15 08:41:53;;;;;;;6.43;2.13;;;;;;;26.32;53.14;100357.66;4976116;23;20082;-78
2023/07/15 08:44:42;;;;;;;4.28;1.50;;;;;;;27.34;52.54;100491.06;4954108;29;20397;-79
2023/07/15 08:47:08;;;;;;;6.75;1.60;;;;;;;27.01;51.71;100446.97;4936670;29;20469;-78
2023/07/15 08:49:56;;;;;;;4.40;1.50;;;;;;;27.50;51.35;100502.97;4954025;29;20035;-78
2023/07/15 08:52:35;;;;;;;3.90;1.70;;;;;;;27.18;51.20;100433.25;4936687;29;20035;-78
2023/07/15 08:55:01;;;;;;;5.43;1.45;;;;;;;27.09;51.45;100454.69;4953705;29;20027;-77
2023/07/15 08:57:32;;;;;;;5.57;1.75;;;;;;;26.80;52.45;100471.16;4953773;29;20480;-78
2023/07/15 08:59:59;;;;;;;;;;;;;;;27.11;51.52;100510.16;4954141;29;20507;-78
2023/07/15 09:02:25;;;;;;;3.83;1.63;;;;;;;26.64;53.85;100521.94;4936319;29;19922;-74
2023/07/15 09:04:50;;;;;;;3.22;1.52;;;;;;;26.50;54.05;100518.53;4953910;29;20027;-76
2023/07/15 09:07:15;;;;;;;6.78;1.60;;;;;;;25.90;54.68;100473.63;4953740;29;20082;-75
2023/07/15 09:09:42;;;;;;;4.07;1.48;;;;;;;25.81;55.96;100529.59;4953937;29;20038;-77
2023/07/15 09:12:29;;;;;;;7.05;1.73;;;;;;;25.50;56.88;100544.19;4953656;28;20054;-77
2023/07/15 09:14:59;;;;;;;3.65;1.90;;;;;;;25.00;57.46;100508.47;4939986;29;20039;-76
2023/07/15 09:18:00;;;;;;;3.22;1.40;;;;;;;24.87;57.57;100496.81;5103804;23;20106;-77
2023/07/15 09:20:38;;;;;;;5.55;1.90;;;;;;;24.83;58.31;100529.94;4956740;29;20042;-76
2023/07/15 09:23:15;;;;;;;5.88;1.85;;;;;;;24.54;58.29;100472.94;4957345;29;20138;-75
2023/07/15 09:25:53;;;;;;;5.25;2.20;;;;;;;24.56;57.88;100457.69;4957083;29;20114;-76
2023/07/15 09:28:20;;;;;;;4.95;1.90;;;;;;;25.42;57.11;100537.25;4957161;29;20038;-77
2023/07/15 09:30:46;;;;;;;3.65;2.13;;;;;;;25.85;55.91;100510.44;4956724;29;20027;-76
2023/07/15 09:42:04;;;;;;;3.80;2.00;;;;;;;26.28;50.41;100480.91;4957130;29;20041;-75
2023/07/15 09:48:30;;;;;;;4.57;2.03;;;;;;;25.82;51.92;100547.09;4957127;29;20058;-77
2023/07/15 09:51:11;;;;;;;4.28;2.03;;;;;;;25.40;53.58;100552.50;4956871;29;20034;-76
2023/07/15 09:56:56;;;;;;;4.95;2.00;;;;;;;24.21;54.37;100408.59;4949908;29;20501;-76
2023/07/15 09:59:56;;;;;;;8.82;2.35;;;;;;;25.31;54.15;100580.13;4937873;29;20024;-78
2023/07/15 10:06:17;;;;;;;5.90;1.83;;;;;;;23.87;55.58;100428.69;4822973;29;20503;-78
2023/07/15 10:23:25;;;;;;;6.50;2.20;;;;;;;24.23;61.74;100557.78;5541959;23;20123;-77
2023/07/15 10:27:01;;;;;;;5.75;2.45;;;;;;;24.28;63.46;100550.09;4843076;29;20049;-78
2023/07/15 10:29:59;;;;;;;3.67;2.17;;;;;;;23.93;64.88;100522.06;4844092;29;20488;-78
2023/07/15 10:32:24;;;;;;;5.40;2.10;;;;;;;22.95;65.25;100370.75;4857084;29;20053;-78
2023/07/15 10:34:52;;;;;;;4.60;1.92;;;;;;;23.51;67.94;100486.78;4859501;29;20507;-78
2023/07/15 10:37:48;;;;;;;7.22;2.08;;;;;;;23.90;67.90;100543.53;4859514;29;20172;-78
2023/07/15 10:41:11;;;;;;;4.55;1.90;;;;;;;24.04;67.00;100550.53;4843911;29;20053;-77
2023/07/15 10:43:40;;;;;;;6.65;2.03;;;;;;;23.12;67.74;100384.50;4859468;29;20041;-76
2023/07/15 10:46:37;;;;;;;5.68;2.08;;;;;;;24.39;66.30;100540.06;4858333;29;20457;-78
2023/07/15 10:49:36;;;;;;;4.78;2.10;;;;;;;24.89;64.52;100539.72;4841187;29;20110;-77
2023/07/15 10:52:21;;;;;;;5.60;1.80;;;;;;;23.91;63.30;100371.91;4840871;29;20045;-76
2023/07/15 11:02:05;;;;;;;3.85;2.00;;;;;;;25.18;62.33;100561.59;4860541;29;20106;-76
2023/07/15 11:07:21;;;;;;;3.15;1.50;;;;;;;24.98;60.22;100502.56;1237372;27;20052;-78
2023/07/15 11:09:46;;;;;;;4.25;2.10;;;;;;;24.71;61.39;100507.75;4916874;29;20482;-77
2023/07/15 11:12:12;;;;;;;5.32;2.22;;;;;;;24.72;62.51;100551.63;4916941;29;20084;-78
2023/07/15 11:14:44;;;;;;;6.45;1.90;;;;;;;24.51;62.01;100543.78;4916910;29;20052;-78
2023/07/15 11:17:13;;;;;;;4.63;1.77;;;;;;;24.59;63.52;100551.56;4916997;29;20435;-77
2023/07/15 11:19:42;;;;;;;4.40;1.92;;;;;;;24.66;62.79;100510.16;4944318;23;20456;-77
2023/07/15 11:22:10;;;;;;;3.50;1.70;;;;;;;24.41;61.46;100443.84;4937642;29;20522;-77
2023/07/15 11:24:36;;;;;;;7.45;2.08;;;;;;;25.26;61.11;100539.44;4955051;29;20057;-77
2023/07/15 11:27:02;;;;;;;6.45;2.00;;;;;;;24.71;61.60;100431.16;4954748;29;20058;-78
2023/07/15 11:29:28;;;;;;;3.40;1.90;;;;;;;25.16;59.96;100522.13;4937636;29;20155;-78
2023/07/15 11:31:55;;;;;;;3.42;1.77;;;;;;;24.99;60.29;100496.28;4954988;29;20120;-78
2023/07/15 11:34:25;;;;;;;3.38;2.08;;;;;;;25.26;59.94;100550.00;4954877;29;20019;-77
2023/07/15 11:36:53;;;;;;;4.03;2.00;;;;;;;25.46;58.79;100525.25;4954469;28;20388;-77
2023/07/15 11:39:19;;;;;;;3.63;1.73;;;;;;;25.48;57.72;100487.25;4954643;29;20113;-78
2023/07/15 11:41:45;;;;;;;5.53;2.05;;;;;;;25.90;57.54;100523.91;4954523;29;20106;-77
2023/07/15 11:44:11;;;;;;;4.50;1.55;;;;;;;25.91;55.16;100516.78;4954676;29;20038;-76
2023/07/15 11:46:38;;;;;;;5.95;1.92;;;;;;;25.79;54.36;100500.72;4954661;29;20023;-76
2023/07/15 11:49:04;;;;;;;6.97;1.90;;;;;;;25.66;54.26;100527.09;4953906;29;20038;-77
2023/07/15 11:51:34;;;;;;;3.45;1.65;;;;;;;25.54;55.23;100507.56;4954197;29;20117;-77
2023/07/15 11:53:59;;;;;;;4.70;1.38;;;;;;;25.73;55.37;100509.44;4954366;29;20078;-77
2023/07/15 11:56:51;;;;;;;2.95;1.27;;;;;;;25.71;55.02;100483.19;4954404;29;20035;-77
2023/07/15 11:59:29;;;;;;;4.43;1.80;;;;;;;26.06;53.94;100498.06;4954471;29;20066;-77
2023/07/15 12:02:01;;;;;;;5.05;1.70;;;;;;;25.89;53.80;100479.13;4954601;29;20370;-77
2023/07/15 12:04:29;;;;;;;3.88;1.58;;;;;;;25.94;54.69;100488.06;4954216;29;20062;-76
2023/07/15 12:07:04;;;;;;;4.72;1.90;;;;;;;26.16;54.51;100501.09;4954298;29;20031;-77
2023/07/15 12:09:31;;;;;;;3.08;1.80;;;;;;;26.00;53.90;100449.41;4954223;29;20050;-77
2023/07/15 12:11:56;;;;;;;3.75;1.95;;;;;;;26.30;54.92;100490.25;4936957;29;20070;-78
2023/07/15 12:14:22;;;;;;;4.68;2.40;;;;;;;26.21;53.83;100480.91;4954351;29;20047;-75
2023/07/15 12:16:47;;;;;;;4.60;2.20;;;;;;;26.18;54.36;100473.38;4954180;29;20055;-76
2023/07/15 12:19:16;;;;;;;4.00;2.00;;;;;;;26.21;54.91;100477.44;4954269;29;20034;-75
2023/07/15 12:21:41;;;;;;;4.57;1.70;;;;;;;26.36;54.87;100470.09;4954013;29;20094;-77
2023/07/15 12:24:07;;;;;;;5.43;2.00;;;;;;;26.72;55.28;100458.13;4954179;29;20023;-77
2023/07/15 12:26:33;;;;;;;6.28;1.88;;;;;;;27.06;54.03;100449.84;4954166;29;20032;-76
2023/07/15 12:28:58;;;;;;;7.18;2.00;;;;;;;27.18;52.76;100459.75;4954182;29;20053;-76
2023/07/15 12:31:24;;;;;;;7.05;1.90;;;;;;;27.15;52.27;100483.03;4936576;29;20505;-76
2023/07/15 12:33:50;;;;;;;5.38;1.80;;;;;;;27.15;53.07;100468.94;4954110;29;20035;-76
2023/07/15 12:36:17;;;;;;;6.30;1.90;;;;;;;27.18;51.29;100457.91;4923017;29;20126;-74
2023/07/15 12:38:43;;;;;;;4.13;1.77;;;;;;;27.05;51.79;100465.97;4935607;29;20509;-76
2023/07/15 12:41:09;;;;;;;5.22;2.17;;;;;;;27.33;51.56;100468.19;4917977;29;20500;-76
2023/07/15 12:43:35;;;;;;;4.53;2.05;;;;;;;27.40;51.08;100450.41;4934303;29;20082;-77
2023/07/15 12:46:01;;;;;;;4.95;2.00;;;;;;;27.03;50.50;100449.44;4934789;29;20079;-76
2023/07/15 12:48:27;;;;;;;5.35;2.05;;;;;;;26.76;52.22;100459.38;4936453;29;20059;-77
2023/07/15 12:50:53;;;;;;;4.20;2.25;;;;;;;26.70;52.25;100478.75;4938554;29;20031;-77
2023/07/15 12:53:22;;;;;;;4.60;2.50;;;;;;;26.91;52.38;100454.56;4938260;29;20039;-77
2023/07/15 12:55:48;;;;;;;6.18;2.35;;;;;;;26.88;51.15;100436.47;4938523;29;20032;-76
2023/07/15 12:58:14;;;;;;;3.05;1.83;;;;;;;27.21;50.88;100460.13;4921497;29;20031;-76
2023/07/15 13:00:39;;;;;;;4.63;2.20;;;;;;;27.42;50.25;100467.72;4938296;29;20039;-79
2023/07/15 13:03:07;;;;;;;2.97;1.90;;;;;;;27.13;50.34;100437.34;4938091;29;20118;-77
2023/07/15 13:05:34;;;;;;;5.13;2.80;;;;;;;27.27;51.13;100464.59;4938253;29;20028;-77
2023/07/15 13:07:59;;;;;;;5.10;2.17;;;;;;;27.07;51.20;100440.03;4938309;29;20510;-77
2023/07/15 13:10:25;;;;;;;4.50;1.98;;;;;;;26.91;51.96;100465.19;4938180;29;20070;-78